sensor_id;sensor_type;location;lat;lon;timestamp;P1;durP1;ratioP1;P2;durP2;ratioP2
56760;SDS011;42633;44.494;11.356;2023-04-25T00:02:01;14.90;;;3.15;;
56760;SDS011;42633;44.494;11.356;2023-04-25T00:05:08;9.60;;;3.17;;
56760;SDS011;42633;44.494;11.356;2023-04-25T00:08:13;12.68;;;3.22;;
56760;SDS011;42633;44.494;11.356;2023-04-25T00:11:21;15.68;;;3.00;;
56760;SDS011;42633;44.494;11.356;2023-04-25T00:14:30;13.77;;;3.10;;
56760;SDS011;42633;44.494;11.356;2023-04-25T00:17:50;15.77;;;3.35;;
56760;SDS011;42633;44.494;11.356;2023-04-25T00:20:57;11.48;;;2.70;;
56760;SDS011;42633;44.494;11.356;2023-04-25T00:24:08;10.23;;;2.97;;
56760;SDS011;42633;44.494;11.356;2023-04-25T00:27:13;12.65;;;3.35;;
56760;SDS011;42633;44.494;11.356;2023-04-25T00:30:18;12.18;;;2.83;;
56760;SDS011;42633;44.494;11.356;2023-04-25T00:33:24;13.35;;;3.15;;
56760;SDS011;42633;44.494;11.356;2023-04-25T00:36:29;8.52;;;2.38;;
56760;SDS011;42633;44.494;11.356;2023-04-25T00:39:38;12.95;;;2.72;;
56760;SDS011;42633;44.494;11.356;2023-04-25T00:42:47;13.73;;;3.00;;
56760;SDS011;42633;44.494;11.356;2023-04-25T00:45:54;15.23;;;2.85;;
56760;SDS011;42633;44.494;11.356;2023-04-25T00:49:07;9.15;;;2.55;;
56760;SDS011;42633;44.494;11.356;2023-04-25T00:52:12;12.65;;;2.55;;
56760;SDS011;42633;44.494;11.356;2023-04-25T00:55:18;9.80;;;2.40;;
56760;SDS011;42633;44.494;11.356;2023-04-25T00:58:26;13.50;;;2.95;;
56760;SDS011;42633;44.494;11.356;2023-04-25T01:05:07;8.02;;;2.65;;
56760;SDS011;42633;44.494;11.356;2023-04-25T01:08:13;11.65;;;2.63;;
56760;SDS011;42633;44.494;11.356;2023-04-25T01:11:20;8.40;;;3.22;;
56760;SDS011;42633;44.494;11.356;2023-04-25T01:14:24;9.35;;;2.67;;
56760;SDS011;42633;44.494;11.356;2023-04-25T01:17:30;13.48;;;3.67;;
56760;SDS011;42633;44.494;11.356;2023-04-25T01:20:37;11.35;;;3.83;;
56760;SDS011;42633;44.494;11.356;2023-04-25T01:23:43;9.60;;;3.20;;
56760;SDS011;42633;44.494;11.356;2023-04-25T01:26:49;8.82;;;3.20;;
56760;SDS011;42633;44.494;11.356;2023-04-25T01:30:03;10.15;;;2.65;;
56760;SDS011;42633;44.494;11.356;2023-04-25T01:33:10;13.10;;;3.55;;
56760;SDS011;42633;44.494;11.356;2023-04-25T01:36:18;9.13;;;3.67;;
56760;SDS011;42633;44.494;11.356;2023-04-25T01:39:23;14.75;;;3.25;;
56760;SDS011;42633;44.494;11.356;2023-04-25T01:42:31;10.68;;;3.58;;
56760;SDS011;42633;44.494;11.356;2023-04-25T01:45:44;11.27;;;3.60;;
56760;SDS011;42633;44.494;11.356;2023-04-25T01:48:51;12.45;;;3.75;;
56760;SDS011;42633;44.494;11.356;2023-04-25T01:51:56;9.52;;;3.63;;
56760;SDS011;42633;44.494;11.356;2023-04-25T01:55:01;12.18;;;3.53;;
56760;SDS011;42633;44.494;11.356;2023-04-25T01:58:09;12.95;;;3.67;;
56760;SDS011;42633;44.494;11.356;2023-04-25T02:01:40;9.57;;;2.85;;
56760;SDS011;42633;44.494;11.356;2023-04-25T02:04:57;13.07;;;3.40;;
56760;SDS011;42633;44.494;11.356;2023-04-25T02:08:06;12.32;;;3.50;;
56760;SDS011;42633;44.494;11.356;2023-04-25T02:11:13;9.30;;;2.70;;
56760;SDS011;42633;44.494;11.356;2023-04-25T02:14:26;9.75;;;2.83;;
56760;SDS011;42633;44.494;11.356;2023-04-25T02:17:56;8.07;;;3.08;;
56760;SDS011;42633;44.494;11.356;2023-04-25T02:21:03;14.63;;;3.83;;
56760;SDS011;42633;44.494;11.356;2023-04-25T02:24:11;14.30;;;3.88;;
56760;SDS011;42633;44.494;11.356;2023-04-25T02:32:01;10.60;;;3.20;;
56760;SDS011;42633;44.494;11.356;2023-04-25T02:39:33;16.70;;;4.07;;
56760;SDS011;42633;44.494;11.356;2023-04-25T02:42:38;13.38;;;3.33;;
56760;SDS011;42633;44.494;11.356;2023-04-25T02:45:45;11.05;;;3.20;;
56760;SDS011;42633;44.494;11.356;2023-04-25T02:48:51;15.80;;;3.60;;
56760;SDS011;42633;44.494;11.356;2023-04-25T02:51:56;15.00;;;4.10;;
56760;SDS011;42633;44.494;11.356;2023-04-25T02:55:01;9.13;;;3.22;;
56760;SDS011;42633;44.494;11.356;2023-04-25T02:58:09;12.27;;;3.05;;
56760;SDS011;42633;44.494;11.356;2023-04-25T03:01:22;12.40;;;2.83;;
56760;SDS011;42633;44.494;11.356;2023-04-25T03:04:27;14.63;;;3.28;;
56760;SDS011;42633;44.494;11.356;2023-04-25T03:07:31;10.90;;;3.00;;
56760;SDS011;42633;44.494;11.356;2023-04-25T03:10:38;13.45;;;3.13;;
56760;SDS011;42633;44.494;11.356;2023-04-25T03:13:45;15.93;;;3.63;;
56760;SDS011;42633;44.494;11.356;2023-04-25T03:16:50;9.93;;;3.00;;
56760;SDS011;42633;44.494;11.356;2023-04-25T03:19:56;12.55;;;3.50;;
56760;SDS011;42633;44.494;11.356;2023-04-25T03:23:04;9.15;;;2.85;;
56760;SDS011;42633;44.494;11.356;2023-04-25T03:29:17;34.53;;;5.18;;
56760;SDS011;42633;44.494;11.356;2023-04-25T03:32:25;11.50;;;3.95;;
56760;SDS011;42633;44.494;11.356;2023-04-25T03:35:36;13.23;;;4.00;;
56760;SDS011;42633;44.494;11.356;2023-04-25T03:38:41;13.50;;;3.37;;
56760;SDS011;42633;44.494;11.356;2023-04-25T03:41:50;12.25;;;3.95;;
56760;SDS011;42633;44.494;11.356;2023-04-25T03:44:56;10.45;;;3.33;;
56760;SDS011;42633;44.494;11.356;2023-04-25T03:48:01;21.23;;;4.15;;
56760;SDS011;42633;44.494;11.356;2023-04-25T03:51:07;14.75;;;3.83;;
56760;SDS011;42633;44.494;11.356;2023-04-25T03:54:18;12.40;;;3.63;;
56760;SDS011;42633;44.494;11.356;2023-04-25T03:57:42;13.80;;;3.50;;
56760;SDS011;42633;44.494;11.356;2023-04-25T04:00:49;10.93;;;3.88;;
56760;SDS011;42633;44.494;11.356;2023-04-25T04:03:54;10.10;;;4.03;;
56760;SDS011;42633;44.494;11.356;2023-04-25T04:10:10;15.20;;;4.60;;
56760;SDS011;42633;44.494;11.356;2023-04-25T04:13:17;14.98;;;3.33;;
56760;SDS011;42633;44.494;11.356;2023-04-25T04:16:22;13.90;;;3.95;;
56760;SDS011;42633;44.494;11.356;2023-04-25T04:19:27;14.68;;;4.07;;
56760;SDS011;42633;44.494;11.356;2023-04-25T04:22:52;14.13;;;4.75;;
56760;SDS011;42633;44.494;11.356;2023-04-25T04:26:01;9.60;;;4.75;;
56760;SDS011;42633;44.494;11.356;2023-04-25T04:29:24;13.55;;;5.68;;
56760;SDS011;42633;44.494;11.356;2023-04-25T04:32:36;15.90;;;5.80;;
56760;SDS011;42633;44.494;11.356;2023-04-25T04:35:42;15.77;;;6.30;;
56760;SDS011;42633;44.494;11.356;2023-04-25T04:38:48;12.13;;;6.80;;
56760;SDS011;42633;44.494;11.356;2023-04-25T04:42:16;13.10;;;6.85;;
56760;SDS011;42633;44.494;11.356;2023-04-25T04:45:32;18.25;;;8.18;;
56760;SDS011;42633;44.494;11.356;2023-04-25T04:48:55;13.15;;;7.40;;
56760;SDS011;42633;44.494;11.356;2023-04-25T04:52:20;12.57;;;7.65;;
56760;SDS011;42633;44.494;11.356;2023-04-25T04:55:31;13.15;;;8.20;;
56760;SDS011;42633;44.494;11.356;2023-04-25T04:58:57;15.65;;;7.70;;
56760;SDS011;42633;44.494;11.356;2023-04-25T05:02:34;19.25;;;8.82;;
56760;SDS011;42633;44.494;11.356;2023-04-25T05:06:10;12.95;;;8.10;;
56760;SDS011;42633;44.494;11.356;2023-04-25T05:09:26;12.93;;;6.80;;
56760;SDS011;42633;44.494;11.356;2023-04-25T05:12:49;15.52;;;7.82;;
56760;SDS011;42633;44.494;11.356;2023-04-25T05:16:12;13.77;;;7.50;;
56760;SDS011;42633;44.494;11.356;2023-04-25T05:19:28;13.18;;;7.97;;
56760;SDS011;42633;44.494;11.356;2023-04-25T05:22:52;15.88;;;7.53;;
56760;SDS011;42633;44.494;11.356;2023-04-25T05:26:22;15.10;;;7.80;;
56760;SDS011;42633;44.494;11.356;2023-04-25T05:29:37;13.38;;;7.28;;
56760;SDS011;42633;44.494;11.356;2023-04-25T05:33:01;12.75;;;7.45;;
56760;SDS011;42633;44.494;11.356;2023-04-25T05:36:05;15.85;;;7.65;;
56760;SDS011;42633;44.494;11.356;2023-04-25T05:39:10;12.15;;;7.38;;
56760;SDS011;42633;44.494;11.356;2023-04-25T05:42:44;13.75;;;6.40;;
56760;SDS011;42633;44.494;11.356;2023-04-25T05:46:02;15.57;;;6.07;;
56760;SDS011;42633;44.494;11.356;2023-04-25T05:49:17;12.80;;;5.80;;
56760;SDS011;42633;44.494;11.356;2023-04-25T05:52:35;13.35;;;6.03;;
56760;SDS011;42633;44.494;11.356;2023-04-25T05:55:45;10.18;;;5.00;;
56760;SDS011;42633;44.494;11.356;2023-04-25T05:59:07;14.32;;;5.05;;
56760;SDS011;42633;44.494;11.356;2023-04-25T06:02:13;12.32;;;4.72;;
56760;SDS011;42633;44.494;11.356;2023-04-25T06:05:18;14.93;;;5.35;;
56760;SDS011;42633;44.494;11.356;2023-04-25T06:08:25;17.43;;;5.53;;
56760;SDS011;42633;44.494;11.356;2023-04-25T06:11:32;12.52;;;6.53;;
56760;SDS011;42633;44.494;11.356;2023-04-25T06:22:09;14.70;;;6.95;;
56760;SDS011;42633;44.494;11.356;2023-04-25T06:25:16;16.88;;;8.20;;
56760;SDS011;42633;44.494;11.356;2023-04-25T06:28:21;20.42;;;8.68;;
56760;SDS011;42633;44.494;11.356;2023-04-25T06:31:25;15.98;;;8.65;;
56760;SDS011;42633;44.494;11.356;2023-04-25T06:34:33;11.68;;;8.50;;
56760;SDS011;42633;44.494;11.356;2023-04-25T06:37:38;16.77;;;8.82;;
56760;SDS011;42633;44.494;11.356;2023-04-25T06:40:42;13.50;;;8.75;;
56760;SDS011;42633;44.494;11.356;2023-04-25T06:43:48;13.15;;;8.80;;
56760;SDS011;42633;44.494;11.356;2023-04-25T06:47:09;14.32;;;9.50;;
56760;SDS011;42633;44.494;11.356;2023-04-25T06:53:21;14.70;;;10.93;;
56760;SDS011;42633;44.494;11.356;2023-04-25T06:56:33;19.55;;;10.50;;
56760;SDS011;42633;44.494;11.356;2023-04-25T06:59:45;16.63;;;10.40;;
56760;SDS011;42633;44.494;11.356;2023-04-25T07:02:50;14.48;;;9.70;;
56760;SDS011;42633;44.494;11.356;2023-04-25T07:05:56;17.27;;;10.88;;
56760;SDS011;42633;44.494;11.356;2023-04-25T07:12:34;13.50;;;9.80;;
56760;SDS011;42633;44.494;11.356;2023-04-25T07:15:41;14.73;;;10.85;;
56760;SDS011;42633;44.494;11.356;2023-04-25T07:18:48;16.23;;;9.07;;
56760;SDS011;42633;44.494;11.356;2023-04-25T07:21:54;12.90;;;7.53;;
56760;SDS011;42633;44.494;11.356;2023-04-25T07:25:05;12.48;;;7.07;;
56760;SDS011;42633;44.494;11.356;2023-04-25T07:28:10;7.72;;;6.43;;
56760;SDS011;42633;44.494;11.356;2023-04-25T07:31:15;10.43;;;6.38;;
56760;SDS011;42633;44.494;11.356;2023-04-25T07:34:21;9.32;;;6.82;;
56760;SDS011;42633;44.494;11.356;2023-04-25T07:37:26;11.15;;;6.30;;
56760;SDS011;42633;44.494;11.356;2023-04-25T07:40:41;14.00;;;6.30;;
56760;SDS011;42633;44.494;11.356;2023-04-25T07:43:48;9.85;;;5.53;;
56760;SDS011;42633;44.494;11.356;2023-04-25T07:46:53;12.60;;;6.25;;
56760;SDS011;42633;44.494;11.356;2023-04-25T07:50:01;10.63;;;6.60;;
56760;SDS011;42633;44.494;11.356;2023-04-25T07:53:07;11.25;;;7.05;;
56760;SDS011;42633;44.494;11.356;2023-04-25T07:56:20;10.55;;;7.15;;
56760;SDS011;42633;44.494;11.356;2023-04-25T07:59:26;10.40;;;6.68;;
56760;SDS011;42633;44.494;11.356;2023-04-25T08:02:32;9.60;;;6.40;;
56760;SDS011;42633;44.494;11.356;2023-04-25T08:05:37;12.77;;;6.50;;
56760;SDS011;42633;44.494;11.356;2023-04-25T08:08:46;10.63;;;6.43;;
56760;SDS011;42633;44.494;11.356;2023-04-25T08:11:57;11.07;;;5.80;;
56760;SDS011;42633;44.494;11.356;2023-04-25T08:15:06;8.32;;;6.35;;
56760;SDS011;42633;44.494;11.356;2023-04-25T08:18:14;9.20;;;6.95;;
56760;SDS011;42633;44.494;11.356;2023-04-25T08:21:19;10.43;;;6.82;;
56760;SDS011;42633;44.494;11.356;2023-04-25T08:24:24;12.38;;;6.40;;
56760;SDS011;42633;44.494;11.356;2023-04-25T08:27:31;14.45;;;7.20;;
56760;SDS011;42633;44.494;11.356;2023-04-25T08:30:38;9.38;;;6.68;;
56760;SDS011;42633;44.494;11.356;2023-04-25T08:33:45;13.07;;;8.77;;
56760;SDS011;42633;44.494;11.356;2023-04-25T08:36:59;10.90;;;7.63;;
56760;SDS011;42633;44.494;11.356;2023-04-25T08:43:53;15.13;;;7.90;;
56760;SDS011;42633;44.494;11.356;2023-04-25T08:47:06;17.42;;;8.80;;
56760;SDS011;42633;44.494;11.356;2023-04-25T08:50:22;14.20;;;8.45;;
56760;SDS011;42633;44.494;11.356;2023-04-25T08:53:38;10.07;;;7.35;;
56760;SDS011;42633;44.494;11.356;2023-04-25T08:56:57;9.10;;;5.72;;
56760;SDS011;42633;44.494;11.356;2023-04-25T09:00:37;4.10;;;2.50;;
56760;SDS011;42633;44.494;11.356;2023-04-25T09:03:58;5.82;;;2.75;;
56760;SDS011;42633;44.494;11.356;2023-04-25T09:07:27;1.88;;;1.30;;
56760;SDS011;42633;44.494;11.356;2023-04-25T09:10:35;5.55;;;1.65;;
56760;SDS011;42633;44.494;11.356;2023-04-25T09:13:47;3.65;;;1.15;;
56760;SDS011;42633;44.494;11.356;2023-04-25T09:27:57;4.53;;;1.98;;
56760;SDS011;42633;44.494;11.356;2023-04-25T09:31:27;1.63;;;0.70;;
56760;SDS011;42633;44.494;11.356;2023-04-25T09:35:01;2.28;;;0.63;;
56760;SDS011;42633;44.494;11.356;2023-04-25T09:38:32;2.47;;;0.80;;
56760;SDS011;42633;44.494;11.356;2023-04-25T09:41:53;1.42;;;0.60;;
56760;SDS011;42633;44.494;11.356;2023-04-25T09:45:04;1.52;;;0.70;;
56760;SDS011;42633;44.494;11.356;2023-04-25T09:48:20;1.65;;;0.50;;
56760;SDS011;42633;44.494;11.356;2023-04-25T09:52:23;6.70;;;1.00;;
56760;SDS011;42633;44.494;11.356;2023-04-25T09:56:06;1.35;;;0.45;;
56760;SDS011;42633;44.494;11.356;2023-04-25T09:59:29;3.05;;;1.08;;
56760;SDS011;42633;44.494;11.356;2023-04-25T10:02:42;1.48;;;0.50;;
56760;SDS011;42633;44.494;11.356;2023-04-25T10:06:35;2.22;;;0.80;;
56760;SDS011;42633;44.494;11.356;2023-04-25T10:09:43;2.97;;;1.23;;
56760;SDS011;42633;44.494;11.356;2023-04-25T10:13:03;3.58;;;1.27;;
56760;SDS011;42633;44.494;11.356;2023-04-25T10:16:30;1.10;;;0.60;;
56760;SDS011;42633;44.494;11.356;2023-04-25T10:19:57;1.65;;;1.00;;
56760;SDS011;42633;44.494;11.356;2023-04-25T10:31:07;4.20;;;1.05;;
56760;SDS011;42633;44.494;11.356;2023-04-25T10:34:13;4.80;;;3.05;;
56760;SDS011;42633;44.494;11.356;2023-04-25T10:37:26;7.20;;;1.30;;
56760;SDS011;42633;44.494;11.356;2023-04-25T10:40:35;2.55;;;1.10;;
56760;SDS011;42633;44.494;11.356;2023-04-25T10:44:00;1.85;;;0.90;;
56760;SDS011;42633;44.494;11.356;2023-04-25T10:47:35;1.70;;;0.68;;
56760;SDS011;42633;44.494;11.356;2023-04-25T10:50:52;0.60;;;0.28;;
56760;SDS011;42633;44.494;11.356;2023-04-25T10:54:18;2.35;;;0.40;;
56760;SDS011;42633;44.494;11.356;2023-04-25T10:57:42;6.20;;;0.82;;
56760;SDS011;42633;44.494;11.356;2023-04-25T11:01:06;0.90;;;0.80;;
56760;SDS011;42633;44.494;11.356;2023-04-25T11:04:34;3.70;;;1.42;;
56760;SDS011;42633;44.494;11.356;2023-04-25T11:07:54;4.20;;;2.67;;
56760;SDS011;42633;44.494;11.356;2023-04-25T11:11:31;2.85;;;0.60;;
56760;SDS011;42633;44.494;11.356;2023-04-25T11:14:58;0.98;;;0.82;;
56760;SDS011;42633;44.494;11.356;2023-04-25T11:18:15;4.03;;;1.73;;
56760;SDS011;42633;44.494;11.356;2023-04-25T11:22:03;4.25;;;1.10;;
56760;SDS011;42633;44.494;11.356;2023-04-25T11:25:22;2.58;;;0.75;;
56760;SDS011;42633;44.494;11.356;2023-04-25T11:28:48;1.40;;;0.60;;
56760;SDS011;42633;44.494;11.356;2023-04-25T11:32:20;4.10;;;0.70;;
56760;SDS011;42633;44.494;11.356;2023-04-25T11:35:28;2.58;;;1.60;;
56760;SDS011;42633;44.494;11.356;2023-04-25T11:38:39;4.82;;;2.17;;
56760;SDS011;42633;44.494;11.356;2023-04-25T11:41:51;6.65;;;1.98;;
56760;SDS011;42633;44.494;11.356;2023-04-25T11:45:00;1.35;;;0.60;;
56760;SDS011;42633;44.494;11.356;2023-04-25T11:48:06;1.60;;;0.50;;
56760;SDS011;42633;44.494;11.356;2023-04-25T11:54:31;2.97;;;0.90;;
56760;SDS011;42633;44.494;11.356;2023-04-25T11:57:38;1.23;;;0.70;;
56760;SDS011;42633;44.494;11.356;2023-04-25T12:00:46;2.25;;;0.47;;
56760;SDS011;42633;44.494;11.356;2023-04-25T12:04:13;1.58;;;0.75;;
56760;SDS011;42633;44.494;11.356;2023-04-25T12:07:27;2.13;;;0.38;;
56760;SDS011;42633;44.494;11.356;2023-04-25T12:10:46;3.90;;;1.15;;
56760;SDS011;42633;44.494;11.356;2023-04-25T12:14:03;3.80;;;0.88;;
56760;SDS011;42633;44.494;11.356;2023-04-25T12:17:19;1.20;;;0.68;;
56760;SDS011;42633;44.494;11.356;2023-04-25T12:20:31;4.25;;;1.73;;
56760;SDS011;42633;44.494;11.356;2023-04-25T12:23:45;1.58;;;0.68;;
56760;SDS011;42633;44.494;11.356;2023-04-25T12:27:17;0.75;;;0.30;;
56760;SDS011;42633;44.494;11.356;2023-04-25T12:30:33;2.75;;;1.92;;
56760;SDS011;42633;44.494;11.356;2023-04-25T12:46:29;1.48;;;0.80;;
56760;SDS011;42633;44.494;11.356;2023-04-25T12:49:59;1.75;;;1.08;;
56760;SDS011;42633;44.494;11.356;2023-04-25T12:53:08;3.03;;;1.67;;
56760;SDS011;42633;44.494;11.356;2023-04-25T12:56:18;2.13;;;0.70;;
56760;SDS011;42633;44.494;11.356;2023-04-25T12:59:31;0.90;;;0.40;;
56760;SDS011;42633;44.494;11.356;2023-04-25T13:02:43;0.88;;;0.30;;
56760;SDS011;42633;44.494;11.356;2023-04-25T13:06:09;3.95;;;1.20;;
56760;SDS011;42633;44.494;11.356;2023-04-25T13:09:28;1.70;;;0.40;;
56760;SDS011;42633;44.494;11.356;2023-04-25T13:13:02;1.02;;;0.60;;
56760;SDS011;42633;44.494;11.356;2023-04-25T13:16:51;0.88;;;0.40;;
56760;SDS011;42633;44.494;11.356;2023-04-25T13:20:21;2.65;;;0.75;;
56760;SDS011;42633;44.494;11.356;2023-04-25T13:23:29;2.20;;;0.88;;
56760;SDS011;42633;44.494;11.356;2023-04-25T13:26:41;1.98;;;0.90;;
56760;SDS011;42633;44.494;11.356;2023-04-25T13:29:46;1.08;;;0.68;;
56760;SDS011;42633;44.494;11.356;2023-04-25T13:32:53;22.17;;;15.17;;
56760;SDS011;42633;44.494;11.356;2023-04-25T13:36:07;3.30;;;0.60;;
56760;SDS011;42633;44.494;11.356;2023-04-25T13:39:20;5.57;;;1.10;;
56760;SDS011;42633;44.494;11.356;2023-04-25T13:49:40;6.57;;;1.90;;
56760;SDS011;42633;44.494;11.356;2023-04-25T13:52:46;5.35;;;1.63;;
56760;SDS011;42633;44.494;11.356;2023-04-25T13:56:01;2.72;;;0.85;;
56760;SDS011;42633;44.494;11.356;2023-04-25T13:59:12;3.75;;;0.80;;
56760;SDS011;42633;44.494;11.356;2023-04-25T14:02:19;5.38;;;0.60;;
56760;SDS011;42633;44.494;11.356;2023-04-25T14:05:24;4.43;;;1.35;;
56760;SDS011;42633;44.494;11.356;2023-04-25T14:08:33;2.50;;;0.80;;
56760;SDS011;42633;44.494;11.356;2023-04-25T14:11:41;4.40;;;1.08;;
56760;SDS011;42633;44.494;11.356;2023-04-25T14:14:47;6.57;;;1.55;;
56760;SDS011;42633;44.494;11.356;2023-04-25T14:17:58;5.15;;;1.23;;
56760;SDS011;42633;44.494;11.356;2023-04-25T14:21:09;4.40;;;0.73;;
56760;SDS011;42633;44.494;11.356;2023-04-25T14:29:27;4.20;;;1.10;;
56760;SDS011;42633;44.494;11.356;2023-04-25T14:36:17;5.68;;;1.65;;
56760;SDS011;42633;44.494;11.356;2023-04-25T14:45:40;5.15;;;1.20;;
56760;SDS011;42633;44.494;11.356;2023-04-25T14:48:46;5.00;;;1.07;;
56760;SDS011;42633;44.494;11.356;2023-04-25T14:51:52;4.97;;;1.38;;
56760;SDS011;42633;44.494;11.356;2023-04-25T14:54:58;13.32;;;2.13;;
56760;SDS011;42633;44.494;11.356;2023-04-25T14:58:10;7.13;;;2.63;;
56760;SDS011;42633;44.494;11.356;2023-04-25T15:01:20;4.25;;;0.60;;
56760;SDS011;42633;44.494;11.356;2023-04-25T15:04:30;1.67;;;0.50;;
56760;SDS011;42633;44.494;11.356;2023-04-25T15:07:38;3.83;;;0.93;;
56760;SDS011;42633;44.494;11.356;2023-04-25T15:10:46;4.50;;;0.60;;
56760;SDS011;42633;44.494;11.356;2023-04-25T15:13:56;4.32;;;1.00;;
56760;SDS011;42633;44.494;11.356;2023-04-25T15:17:19;3.95;;;0.82;;
56760;SDS011;42633;44.494;11.356;2023-04-25T15:20:37;5.72;;;0.70;;
56760;SDS011;42633;44.494;11.356;2023-04-25T15:24:15;4.18;;;0.70;;
56760;SDS011;42633;44.494;11.356;2023-04-25T15:27:40;6.10;;;1.48;;
56760;SDS011;42633;44.494;11.356;2023-04-25T15:30:55;3.90;;;1.20;;
56760;SDS011;42633;44.494;11.356;2023-04-25T15:34:37;5.53;;;1.23;;
56760;SDS011;42633;44.494;11.356;2023-04-25T15:37:44;4.43;;;0.82;;
56760;SDS011;42633;44.494;11.356;2023-04-25T15:40:55;3.28;;;0.70;;
56760;SDS011;42633;44.494;11.356;2023-04-25T15:44:08;3.60;;;1.23;;
56760;SDS011;42633;44.494;11.356;2023-04-25T15:47:14;7.05;;;1.20;;
56760;SDS011;42633;44.494;11.356;2023-04-25T15:50:36;3.95;;;0.80;;
56760;SDS011;42633;44.494;11.356;2023-04-25T15:53:51;7.07;;;1.63;;
56760;SDS011;42633;44.494;11.356;2023-04-25T15:57:06;6.78;;;1.60;;
56760;SDS011;42633;44.494;11.356;2023-04-25T16:00:19;5.78;;;1.00;;
56760;SDS011;42633;44.494;11.356;2023-04-25T16:03:29;7.00;;;1.20;;
56760;SDS011;42633;44.494;11.356;2023-04-25T16:06:41;5.07;;;1.45;;
56760;SDS011;42633;44.494;11.356;2023-04-25T16:09:47;4.40;;;0.93;;
56760;SDS011;42633;44.494;11.356;2023-04-25T16:12:57;8.55;;;1.40;;
56760;SDS011;42633;44.494;11.356;2023-04-25T16:16:17;5.97;;;1.83;;
56760;SDS011;42633;44.494;11.356;2023-04-25T16:19:24;5.78;;;1.48;;
56760;SDS011;42633;44.494;11.356;2023-04-25T16:22:39;6.45;;;1.50;;
56760;SDS011;42633;44.494;11.356;2023-04-25T16:26:03;8.65;;;1.50;;
56760;SDS011;42633;44.494;11.356;2023-04-25T16:29:11;10.55;;;1.95;;
56760;SDS011;42633;44.494;11.356;2023-04-25T16:32:27;5.72;;;1.20;;
56760;SDS011;42633;44.494;11.356;2023-04-25T16:35:37;7.95;;;1.10;;
56760;SDS011;42633;44.494;11.356;2023-04-25T16:38:43;6.47;;;1.27;;
56760;SDS011;42633;44.494;11.356;2023-04-25T16:41:59;5.60;;;1.08;;
56760;SDS011;42633;44.494;11.356;2023-04-25T16:48:59;6.53;;;2.20;;
56760;SDS011;42633;44.494;11.356;2023-04-25T16:52:20;5.63;;;1.63;;
